EZY648L EGGW-EGAA
Flight info
| Callsign | EZY648L |
|---|---|
| Flight time | 0h 54m |
| Altitude | 34000 |
| Route | OLNEY T420 TNT UL28 RODOL UM65 TENSO L603 BELOX DCT REMSI DCT UVPOK M147 ROBOP M146 IPSET P6 BELZU |
| Aircraft | A320/M-SDE3FGHIRWY/LB1 |
Departure
| Time | 2026-05-07 16:58 |
|---|---|
| Airport | London Luton Airport (EGGW) |
Arrival
| Time | 2026-05-07 17:52 |
|---|---|
| Airport | Belfast International Airport (EGAA) |
| Time | Latitude | Longitude | Altitude | Speed | Heading |
|---|---|---|---|---|---|
| 2026-05-07 16:33 | 51.87817 | -0.37787 | 524 ft | 0 kts | 23° |
| 2026-05-07 16:36 | 51.87818 | -0.37787 | 523 ft | 0 kts | 23° |
| 2026-05-07 16:47 | 51.87813 | -0.37790 | 524 ft | 0 kts | 23° |
| 2026-05-07 16:47 | 51.87814 | -0.37790 | 523 ft | 0 kts | 23° |
| 2026-05-07 16:48 | 51.87809 | -0.37793 | 523 ft | 0 kts | 23° |
| 2026-05-07 16:50 | 51.87810 | -0.37792 | 523 ft | 0 kts | 23° |
| 2026-05-07 16:50 | 51.87814 | -0.37789 | 523 ft | 0 kts | 24° |
| 2026-05-07 16:51 | 51.87813 | -0.37790 | 523 ft | 1 kts | 24° |
| 2026-05-07 16:51 | 51.87806 | -0.37796 | 523 ft | 2 kts | 23° |
| 2026-05-07 16:51 | 51.87794 | -0.37803 | 523 ft | 0 kts | 21° |
| 2026-05-07 16:51 | 51.87791 | -0.37805 | 523 ft | 0 kts | 27° |
| 2026-05-07 16:52 | 51.87786 | -0.37809 | 523 ft | 2 kts | 28° |
| 2026-05-07 16:52 | 51.87774 | -0.37820 | 523 ft | 0 kts | 72° |
| 2026-05-07 16:52 | 51.87767 | -0.37796 | 523 ft | 0 kts | 115° |
| 2026-05-07 16:54 | 51.87759 | -0.37769 | 523 ft | 9 kts | 117° |
| 2026-05-07 16:54 | 51.87721 | -0.37642 | 519 ft | 16 kts | 115° |
| 2026-05-07 16:54 | 51.87658 | -0.37485 | 522 ft | 16 kts | 144° |
| 2026-05-07 16:54 | 51.87556 | -0.37460 | 522 ft | 16 kts | 194° |
| 2026-05-07 16:55 | 51.87549 | -0.37464 | 521 ft | 0 kts | 199° |
| 2026-05-07 16:55 | 51.87547 | -0.37465 | 521 ft | 3 kts | 200° |
| 2026-05-07 16:55 | 51.87503 | -0.37544 | 522 ft | 15 kts | 251° |
| 2026-05-07 16:56 | 51.87472 | -0.37724 | 523 ft | 17 kts | 256° |
| 2026-05-07 16:56 | 51.87437 | -0.37928 | 523 ft | 19 kts | 248° |
| 2026-05-07 16:56 | 51.87255 | -0.38092 | 523 ft | 15 kts | 132° |
| 2026-05-07 16:57 | 51.87262 | -0.37999 | 524 ft | 0 kts | 71° |
| 2026-05-07 16:57 | 51.87272 | -0.37946 | 524 ft | 29 kts | 75° |
| 2026-05-07 16:57 | 51.87399 | -0.37212 | 521 ft | 102 kts | 74° |
| 2026-05-07 16:57 | 51.87641 | -0.35794 | 564 ft | 153 kts | 74° |
| 2026-05-07 16:58 | 51.87922 | -0.34169 | 1297 ft | 148 kts | 75° |
| 2026-05-07 16:58 | 51.88213 | -0.32523 | 1894 ft | 158 kts | 75° |
| 2026-05-07 16:58 | 51.88537 | -0.30731 | 2217 ft | 179 kts | 75° |
| 2026-05-07 16:58 | 51.88906 | -0.28664 | 2600 ft | 197 kts | 75° |
| 2026-05-07 16:59 | 51.89589 | -0.26657 | 2962 ft | 218 kts | 41° |
| 2026-05-07 16:59 | 51.91032 | -0.25721 | 3296 ft | 243 kts | 0° |
| 2026-05-07 16:59 | 51.92686 | -0.26534 | 3793 ft | 260 kts | 321° |
| 2026-05-07 16:59 | 51.93730 | -0.28884 | 4636 ft | 262 kts | 285° |
| 2026-05-07 17:00 | 51.93830 | -0.31802 | 5554 ft | 263 kts | 262° |
| 2026-05-07 17:00 | 51.93495 | -0.34717 | 6522 ft | 263 kts | 256° |
| 2026-05-07 17:00 | 51.93131 | -0.37643 | 7383 ft | 268 kts | 263° |
| 2026-05-07 17:00 | 51.93392 | -0.40645 | 8182 ft | 277 kts | 294° |
| 2026-05-07 17:01 | 51.94480 | -0.43257 | 9025 ft | 284 kts | 308° |
| 2026-05-07 17:01 | 51.95828 | -0.45663 | 9871 ft | 290 kts | 313° |
| 2026-05-07 17:01 | 51.97295 | -0.48007 | 10406 ft | 306 kts | 314° |
| 2026-05-07 17:01 | 51.98893 | -0.50492 | 10722 ft | 328 kts | 315° |
| 2026-05-07 17:02 | 52.00556 | -0.53097 | 11358 ft | 336 kts | 314° |
| 2026-05-07 17:02 | 52.02236 | -0.55781 | 12110 ft | 340 kts | 314° |
| 2026-05-07 17:02 | 52.03914 | -0.58524 | 12869 ft | 344 kts | 313° |
| 2026-05-07 17:02 | 52.05600 | -0.61323 | 13613 ft | 349 kts | 313° |
| 2026-05-07 17:03 | 52.07298 | -0.64170 | 14283 ft | 353 kts | 312° |
| 2026-05-07 17:03 | 52.09011 | -0.67058 | 14970 ft | 355 kts | 312° |
| 2026-05-07 17:03 | 52.10735 | -0.69965 | 15653 ft | 358 kts | 312° |
| 2026-05-07 17:03 | 52.12511 | -0.72827 | 16325 ft | 361 kts | 318° |
| 2026-05-07 17:04 | 52.14569 | -0.75212 | 16991 ft | 365 kts | 327° |
| 2026-05-07 17:04 | 52.16756 | -0.77360 | 17665 ft | 368 kts | 327° |
| 2026-05-07 17:04 | 52.18955 | -0.79518 | 18325 ft | 370 kts | 327° |
| 2026-05-07 17:04 | 52.21169 | -0.81697 | 18892 ft | 373 kts | 327° |
| 2026-05-07 17:05 | 52.23397 | -0.83900 | 19451 ft | 375 kts | 327° |
| 2026-05-07 17:05 | 52.25639 | -0.86123 | 20011 ft | 378 kts | 327° |
| 2026-05-07 17:05 | 52.27865 | -0.88331 | 20551 ft | 380 kts | 327° |
| 2026-05-07 17:05 | 52.30139 | -0.90590 | 21085 ft | 384 kts | 327° |
| 2026-05-07 17:06 | 52.32439 | -0.92878 | 21604 ft | 387 kts | 327° |
| 2026-05-07 17:06 | 52.34748 | -0.95182 | 22127 ft | 390 kts | 326° |
| 2026-05-07 17:06 | 52.37069 | -0.97500 | 22631 ft | 393 kts | 326° |
| 2026-05-07 17:06 | 52.39410 | -0.99842 | 23146 ft | 395 kts | 326° |
| 2026-05-07 17:07 | 52.41772 | -1.02200 | 23649 ft | 398 kts | 326° |
| 2026-05-07 17:07 | 52.44150 | -1.04577 | 24043 ft | 400 kts | 326° |
| 2026-05-07 17:07 | 52.46537 | -1.06969 | 24439 ft | 403 kts | 326° |
| 2026-05-07 17:07 | 52.48937 | -1.09384 | 24834 ft | 406 kts | 326° |
| 2026-05-07 17:08 | 52.50535 | -1.10995 | 25088 ft | 408 kts | 326° |
| 2026-05-07 17:08 | 52.52964 | -1.13444 | 25459 ft | 411 kts | 327° |
| 2026-05-07 17:08 | 52.56213 | -1.16717 | 25909 ft | 416 kts | 327° |
| 2026-05-07 17:08 | 52.58695 | -1.19212 | 26273 ft | 419 kts | 327° |
| 2026-05-07 17:09 | 52.60375 | -1.20907 | 26513 ft | 421 kts | 327° |
| 2026-05-07 17:09 | 52.62883 | -1.23442 | 26880 ft | 423 kts | 327° |
| 2026-05-07 17:09 | 52.65374 | -1.25967 | 27237 ft | 426 kts | 327° |
| 2026-05-07 17:09 | 52.67904 | -1.28539 | 27596 ft | 429 kts | 327° |
| 2026-05-07 17:10 | 52.70453 | -1.31129 | 27951 ft | 431 kts | 327° |
| 2026-05-07 17:10 | 52.73021 | -1.33740 | 28307 ft | 434 kts | 327° |
| 2026-05-07 17:10 | 52.75599 | -1.36364 | 28681 ft | 437 kts | 327° |
| 2026-05-07 17:10 | 52.78203 | -1.39017 | 28944 ft | 441 kts | 328° |
| 2026-05-07 17:11 | 52.80834 | -1.41697 | 29249 ft | 445 kts | 328° |
| 2026-05-07 17:11 | 52.83472 | -1.44387 | 29566 ft | 448 kts | 328° |
| 2026-05-07 17:11 | 52.86138 | -1.47112 | 29892 ft | 450 kts | 328° |
| 2026-05-07 17:11 | 52.88811 | -1.49854 | 30188 ft | 453 kts | 328° |
| 2026-05-07 17:12 | 52.91492 | -1.52609 | 30461 ft | 455 kts | 328° |
| 2026-05-07 17:12 | 52.94188 | -1.55385 | 30742 ft | 457 kts | 327° |
| 2026-05-07 17:12 | 52.96891 | -1.58176 | 31015 ft | 458 kts | 327° |
| 2026-05-07 17:12 | 52.99606 | -1.60982 | 31282 ft | 460 kts | 327° |
| 2026-05-07 17:13 | 53.02337 | -1.63807 | 31501 ft | 463 kts | 328° |
| 2026-05-07 17:13 | 53.05074 | -1.66644 | 31814 ft | 463 kts | 327° |
| 2026-05-07 17:13 | 53.07775 | -1.69452 | 32169 ft | 463 kts | 327° |
| 2026-05-07 17:13 | 53.10510 | -1.72299 | 32534 ft | 462 kts | 327° |
| 2026-05-07 17:14 | 53.13240 | -1.75139 | 32905 ft | 462 kts | 327° |
| 2026-05-07 17:14 | 53.15959 | -1.77972 | 33266 ft | 461 kts | 327° |
| 2026-05-07 17:14 | 53.18675 | -1.80810 | 33620 ft | 461 kts | 327° |
| 2026-05-07 17:14 | 53.21389 | -1.83652 | 33957 ft | 461 kts | 327° |
| 2026-05-07 17:15 | 53.26798 | -1.89210 | 34035 ft | 451 kts | 329° |
| 2026-05-07 17:15 | 53.32243 | -1.94345 | 34030 ft | 449 kts | 331° |
| 2026-05-07 17:16 | 53.37714 | -1.99393 | 34029 ft | 448 kts | 331° |
| 2026-05-07 17:16 | 53.43155 | -2.04515 | 34027 ft | 448 kts | 330° |
| 2026-05-07 17:17 | 53.48573 | -2.09702 | 34021 ft | 448 kts | 329° |
| 2026-05-07 17:17 | 53.53980 | -2.14895 | 34018 ft | 447 kts | 329° |
| 2026-05-07 17:18 | 53.58790 | -2.21294 | 34020 ft | 444 kts | 310° |
| 2026-05-07 17:18 | 53.62136 | -2.29919 | 33995 ft | 439 kts | 291° |
| 2026-05-07 17:19 | 53.64364 | -2.39475 | 33994 ft | 438 kts | 289° |
| 2026-05-07 17:19 | 53.66553 | -2.49044 | 33993 ft | 438 kts | 288° |
| 2026-05-07 17:20 | 53.68740 | -2.58649 | 33992 ft | 438 kts | 288° |
| 2026-05-07 17:20 | 53.70909 | -2.68241 | 34021 ft | 437 kts | 288° |
| 2026-05-07 17:21 | 53.73073 | -2.77844 | 33997 ft | 437 kts | 288° |
| 2026-05-07 17:21 | 53.75233 | -2.87470 | 33996 ft | 438 kts | 288° |
| 2026-05-07 17:22 | 53.77371 | -2.97031 | 33993 ft | 438 kts | 288° |
| 2026-05-07 17:22 | 53.79522 | -3.06722 | 33992 ft | 437 kts | 288° |
| 2026-05-07 17:23 | 53.81649 | -3.16359 | 34004 ft | 437 kts | 287° |
| 2026-05-07 17:23 | 53.83777 | -3.25995 | 34007 ft | 436 kts | 287° |
| 2026-05-07 17:24 | 53.85890 | -3.35607 | 34006 ft | 435 kts | 287° |
| 2026-05-07 17:24 | 53.87982 | -3.45227 | 34002 ft | 434 kts | 287° |
| 2026-05-07 17:25 | 53.90063 | -3.54845 | 33998 ft | 434 kts | 287° |
| 2026-05-07 17:25 | 53.92141 | -3.64461 | 33991 ft | 434 kts | 287° |
| 2026-05-07 17:26 | 53.94209 | -3.74064 | 33988 ft | 430 kts | 287° |
| 2026-05-07 17:26 | 53.95227 | -3.78813 | 33647 ft | 425 kts | 286° |
| 2026-05-07 17:26 | 53.96075 | -3.83530 | 33372 ft | 419 kts | 278° |
| 2026-05-07 17:27 | 53.96550 | -3.88377 | 33100 ft | 415 kts | 275° |
| 2026-05-07 17:27 | 53.96980 | -3.93221 | 32826 ft | 413 kts | 275° |
| 2026-05-07 17:27 | 53.97410 | -3.98021 | 32557 ft | 411 kts | 275° |
| 2026-05-07 17:27 | 53.97843 | -4.02866 | 32197 ft | 406 kts | 275° |
| 2026-05-07 17:28 | 53.98260 | -4.07593 | 31722 ft | 403 kts | 275° |
| 2026-05-07 17:28 | 53.98669 | -4.12281 | 31250 ft | 399 kts | 275° |
| 2026-05-07 17:28 | 53.99125 | -4.16862 | 30790 ft | 398 kts | 280° |
| 2026-05-07 17:28 | 54.00007 | -4.21385 | 30336 ft | 400 kts | 290° |
| 2026-05-07 17:29 | 54.01336 | -4.25545 | 29832 ft | 401 kts | 300° |
| 2026-05-07 17:29 | 54.02921 | -4.29361 | 29362 ft | 397 kts | 302° |
| 2026-05-07 17:29 | 54.04508 | -4.33175 | 28933 ft | 392 kts | 301° |
| 2026-05-07 17:29 | 54.06068 | -4.36950 | 28491 ft | 387 kts | 301° |
| 2026-05-07 17:30 | 54.07604 | -4.40675 | 28076 ft | 382 kts | 301° |
| 2026-05-07 17:30 | 54.09121 | -4.44356 | 27668 ft | 377 kts | 301° |
| 2026-05-07 17:30 | 54.10620 | -4.47998 | 27276 ft | 373 kts | 301° |
| 2026-05-07 17:30 | 54.12102 | -4.51604 | 26850 ft | 369 kts | 301° |
| 2026-05-07 17:31 | 54.13562 | -4.55165 | 26453 ft | 365 kts | 301° |
| 2026-05-07 17:31 | 54.15012 | -4.58705 | 26033 ft | 362 kts | 301° |
| 2026-05-07 17:31 | 54.16448 | -4.62212 | 25615 ft | 359 kts | 301° |
| 2026-05-07 17:31 | 54.17877 | -4.65701 | 25191 ft | 357 kts | 301° |
| 2026-05-07 17:32 | 54.19297 | -4.69165 | 24756 ft | 355 kts | 301° |
| 2026-05-07 17:32 | 54.20706 | -4.72611 | 24325 ft | 353 kts | 301° |
| 2026-05-07 17:32 | 54.22106 | -4.76042 | 23890 ft | 351 kts | 301° |
| 2026-05-07 17:32 | 54.23031 | -4.78310 | 23611 ft | 350 kts | 301° |
| 2026-05-07 17:33 | 54.24884 | -4.82868 | 22972 ft | 347 kts | 301° |
| 2026-05-07 17:33 | 54.26254 | -4.86248 | 22547 ft | 344 kts | 300° |
| 2026-05-07 17:33 | 54.27617 | -4.89611 | 22119 ft | 341 kts | 301° |
| 2026-05-07 17:33 | 54.28947 | -4.92893 | 21707 ft | 338 kts | 300° |
| 2026-05-07 17:34 | 54.30280 | -4.96186 | 21308 ft | 335 kts | 300° |
| 2026-05-07 17:34 | 54.31604 | -4.99454 | 20897 ft | 333 kts | 300° |
| 2026-05-07 17:34 | 54.32917 | -5.02701 | 20508 ft | 331 kts | 300° |
| 2026-05-07 17:34 | 54.34221 | -5.05933 | 20113 ft | 328 kts | 300° |
| 2026-05-07 17:35 | 54.35517 | -5.09151 | 19721 ft | 327 kts | 300° |
| 2026-05-07 17:35 | 54.36803 | -5.12354 | 19333 ft | 325 kts | 300° |
| 2026-05-07 17:35 | 54.38084 | -5.15545 | 18942 ft | 324 kts | 300° |
| 2026-05-07 17:35 | 54.39366 | -5.18737 | 18553 ft | 324 kts | 300° |
| 2026-05-07 17:36 | 54.40643 | -5.21920 | 18157 ft | 323 kts | 300° |
| 2026-05-07 17:36 | 54.41914 | -5.25100 | 17747 ft | 322 kts | 300° |
| 2026-05-07 17:36 | 54.43173 | -5.28260 | 17375 ft | 319 kts | 300° |
| 2026-05-07 17:36 | 54.44419 | -5.31406 | 16994 ft | 317 kts | 300° |
| 2026-05-07 17:37 | 54.45757 | -5.34417 | 16622 ft | 319 kts | 309° |
| 2026-05-07 17:37 | 54.47299 | -5.37163 | 16263 ft | 318 kts | 309° |
| 2026-05-07 17:37 | 54.48837 | -5.39899 | 15884 ft | 317 kts | 309° |
| 2026-05-07 17:37 | 54.50362 | -5.42629 | 15519 ft | 316 kts | 308° |
| 2026-05-07 17:38 | 54.51658 | -5.45620 | 15161 ft | 309 kts | 295° |
| 2026-05-07 17:38 | 54.52523 | -5.48975 | 14809 ft | 303 kts | 284° |
| 2026-05-07 17:38 | 54.53156 | -5.52425 | 14465 ft | 302 kts | 284° |
| 2026-05-07 17:38 | 54.53796 | -5.55861 | 14121 ft | 301 kts | 284° |
| 2026-05-07 17:39 | 54.54430 | -5.59247 | 13779 ft | 300 kts | 284° |
| 2026-05-07 17:39 | 54.55069 | -5.62664 | 13409 ft | 299 kts | 284° |
| 2026-05-07 17:39 | 54.55707 | -5.66066 | 13057 ft | 297 kts | 284° |
| 2026-05-07 17:39 | 54.56336 | -5.69441 | 12717 ft | 294 kts | 284° |
| 2026-05-07 17:40 | 54.56958 | -5.72786 | 12368 ft | 292 kts | 284° |
| 2026-05-07 17:40 | 54.57575 | -5.76111 | 12019 ft | 290 kts | 284° |
| 2026-05-07 17:40 | 54.58187 | -5.79421 | 11668 ft | 289 kts | 284° |
| 2026-05-07 17:40 | 54.58793 | -5.82708 | 11331 ft | 287 kts | 284° |
| 2026-05-07 17:41 | 54.59397 | -5.85990 | 10973 ft | 286 kts | 284° |
| 2026-05-07 17:41 | 54.60224 | -5.89112 | 10616 ft | 290 kts | 303° |
| 2026-05-07 17:41 | 54.61620 | -5.91634 | 10345 ft | 290 kts | 313° |
| 2026-05-07 17:41 | 54.63097 | -5.93973 | 10025 ft | 287 kts | 314° |
| 2026-05-07 17:42 | 54.64579 | -5.96298 | 9646 ft | 288 kts | 314° |
| 2026-05-07 17:42 | 54.66059 | -5.98627 | 9241 ft | 288 kts | 314° |
| 2026-05-07 17:42 | 54.67043 | -6.00174 | 8967 ft | 287 kts | 314° |
| 2026-05-07 17:42 | 54.68517 | -6.02497 | 8578 ft | 286 kts | 314° |
| 2026-05-07 17:43 | 54.69985 | -6.04808 | 8152 ft | 285 kts | 314° |
| 2026-05-07 17:43 | 54.71448 | -6.07108 | 7763 ft | 284 kts | 314° |
| 2026-05-07 17:43 | 54.72904 | -6.09394 | 7379 ft | 281 kts | 314° |
| 2026-05-07 17:43 | 54.74350 | -6.11658 | 7000 ft | 279 kts | 314° |
| 2026-05-07 17:44 | 54.75782 | -6.13900 | 6622 ft | 277 kts | 314° |
| 2026-05-07 17:44 | 54.77204 | -6.16128 | 6252 ft | 275 kts | 314° |
| 2026-05-07 17:44 | 54.78618 | -6.18357 | 5840 ft | 273 kts | 314° |
| 2026-05-07 17:44 | 54.80015 | -6.20567 | 5455 ft | 270 kts | 314° |
| 2026-05-07 17:45 | 54.81410 | -6.22652 | 5114 ft | 258 kts | 317° |
| 2026-05-07 17:45 | 54.82790 | -6.24502 | 4819 ft | 243 kts | 319° |
| 2026-05-07 17:45 | 54.84165 | -6.26061 | 4541 ft | 233 kts | 333° |
| 2026-05-07 17:45 | 54.85656 | -6.27014 | 4269 ft | 233 kts | 338° |
| 2026-05-07 17:46 | 54.87162 | -6.27983 | 4144 ft | 225 kts | 324° |
| 2026-05-07 17:46 | 54.88183 | -6.29832 | 4087 ft | 203 kts | 289° |
| 2026-05-07 17:46 | 54.88336 | -6.32093 | 4072 ft | 185 kts | 251° |
| 2026-05-07 17:46 | 54.87643 | -6.33885 | 4070 ft | 182 kts | 214° |
| 2026-05-07 17:47 | 54.86442 | -6.34457 | 4088 ft | 179 kts | 177° |
| 2026-05-07 17:47 | 54.85286 | -6.33882 | 4084 ft | 167 kts | 167° |
| 2026-05-07 17:47 | 54.84199 | -6.33261 | 3991 ft | 163 kts | 167° |
| 2026-05-07 17:47 | 54.83123 | -6.32650 | 3820 ft | 162 kts | 167° |
| 2026-05-07 17:48 | 54.82056 | -6.32045 | 3615 ft | 161 kts | 167° |
| 2026-05-07 17:48 | 54.80990 | -6.31441 | 3404 ft | 161 kts | 167° |
| 2026-05-07 17:48 | 54.79926 | -6.30838 | 3187 ft | 160 kts | 167° |
| 2026-05-07 17:48 | 54.78870 | -6.30240 | 2971 ft | 159 kts | 166° |
| 2026-05-07 17:49 | 54.77824 | -6.29648 | 2753 ft | 157 kts | 166° |
| 2026-05-07 17:49 | 54.76806 | -6.29072 | 2543 ft | 155 kts | 166° |
| 2026-05-07 17:49 | 54.75711 | -6.28454 | 2319 ft | 156 kts | 165° |
| 2026-05-07 17:49 | 54.74684 | -6.27874 | 2105 ft | 155 kts | 166° |
| 2026-05-07 17:50 | 54.73675 | -6.27303 | 1892 ft | 149 kts | 165° |
| 2026-05-07 17:50 | 54.72714 | -6.26760 | 1706 ft | 141 kts | 165° |
| 2026-05-07 17:50 | 54.71790 | -6.26239 | 1494 ft | 138 kts | 165° |
| 2026-05-07 17:50 | 54.70892 | -6.25733 | 1328 ft | 132 kts | 164° |
| 2026-05-07 17:51 | 54.70022 | -6.25244 | 1127 ft | 129 kts | 165° |
| 2026-05-07 17:51 | 54.69165 | -6.24762 | 934 ft | 130 kts | 163° |
| 2026-05-07 17:51 | 54.68305 | -6.24276 | 737 ft | 130 kts | 162° |
| 2026-05-07 17:51 | 54.67446 | -6.23797 | 593 ft | 130 kts | 162° |
| 2026-05-07 17:52 | 54.66592 | -6.23316 | 419 ft | 129 kts | 164° |
| 2026-05-07 17:52 | 54.65744 | -6.22832 | 251 ft | 128 kts | 164° |
| 2026-05-07 17:52 | 54.65000 | -6.22419 | 235 ft | 77 kts | 162° |
| 2026-05-07 17:52 | 54.64772 | -6.22290 | 242 ft | 1 kts | 161° |
| 2026-05-07 17:53 | 54.64741 | -6.22271 | 243 ft | 15 kts | 161° |
| 2026-05-07 17:53 | 54.64606 | -6.22196 | 247 ft | 22 kts | 162° |
| 2026-05-07 17:53 | 54.64522 | -6.22072 | 250 ft | 15 kts | 56° |
| 2026-05-07 17:53 | 54.64617 | -6.22044 | 249 ft | 19 kts | 349° |
| 2026-05-07 17:54 | 54.64754 | -6.22118 | 245 ft | 22 kts | 342° |
| 2026-05-07 17:54 | 54.64922 | -6.22206 | 240 ft | 26 kts | 341° |
| 2026-05-07 17:54 | 54.65074 | -6.22297 | 236 ft | 13 kts | 352° |
| 2026-05-07 17:54 | 54.65082 | -6.22314 | 236 ft | 0 kts | 231° |
| 2026-05-07 17:55 | 54.65077 | -6.22317 | 236 ft | 4 kts | 212° |
| 2026-05-07 17:55 | 54.65070 | -6.22454 | 233 ft | 22 kts | 311° |
| 2026-05-07 17:55 | 54.65229 | -6.22545 | 229 ft | 24 kts | 342° |
| 2026-05-07 17:55 | 54.65398 | -6.22638 | 224 ft | 28 kts | 343° |
| 2026-05-07 17:56 | 54.65612 | -6.22760 | 223 ft | 29 kts | 341° |
| 2026-05-07 17:56 | 54.65739 | -6.22734 | 220 ft | 19 kts | 68° |
| 2026-05-07 17:56 | 54.65754 | -6.22506 | 222 ft | 20 kts | 84° |
| 2026-05-07 17:56 | 54.65771 | -6.22247 | 228 ft | 22 kts | 83° |
| 2026-05-07 17:57 | 54.65814 | -6.22026 | 234 ft | 14 kts | 53° |
| 2026-05-07 17:57 | 54.65871 | -6.22019 | 232 ft | 13 kts | 337° |
| 2026-05-07 17:57 | 54.66004 | -6.22028 | 230 ft | 11 kts | 14° |
| 2026-05-07 17:57 | 54.66017 | -6.22022 | 232 ft | 0 kts | 15° |